createdAt,value
2022-07-30T00:01:14.824Z,21
2022-07-30T00:06:50.720Z,21
2022-07-30T00:12:25.355Z,21
2022-07-30T00:18:22.483Z,21
2022-07-30T00:24:01.707Z,21
2022-07-30T00:29:37.358Z,20.9
2022-07-30T00:35:20.908Z,20.9
2022-07-30T00:41:01.931Z,20.9
2022-07-30T00:46:37.083Z,20.9
2022-07-30T00:52:11.959Z,20.9
2022-07-30T00:57:46.724Z,20.9
2022-07-30T01:03:21.960Z,20.9
2022-07-30T01:08:56.796Z,20.9
2022-07-30T01:14:31.599Z,20.8
2022-07-30T01:20:06.454Z,20.8
2022-07-30T01:25:43.120Z,20.8
2022-07-30T01:31:18.990Z,20.8
2022-07-30T01:36:54.410Z,20.8
2022-07-30T01:42:29.424Z,20.8
2022-07-30T01:48:04.356Z,20.8
2022-07-30T01:53:39.125Z,20.7
2022-07-30T01:59:14.467Z,20.7
2022-07-30T02:04:50.304Z,20.7
2022-07-30T02:10:25.331Z,20.7
2022-07-30T02:16:00.177Z,20.7
2022-07-30T02:21:37.318Z,20.7
2022-07-30T02:27:12.415Z,20.7
2022-07-30T02:32:48.387Z,20.6
2022-07-30T02:38:23.134Z,20.6
2022-07-30T02:43:58.461Z,20.6
2022-07-30T02:49:33.371Z,20.6
2022-07-30T02:55:08.177Z,20.6
2022-07-30T03:00:43.186Z,20.6
2022-07-30T03:06:18.950Z,20.6
2022-07-30T03:11:53.843Z,20.6
2022-07-30T03:17:50.679Z,20.6
2022-07-30T03:23:23.299Z,20.5
2022-07-30T03:28:58.950Z,20.5
2022-07-30T03:34:33.688Z,20.5
2022-07-30T03:40:10.283Z,20.5
2022-07-30T03:45:45.149Z,20.5
2022-07-30T03:51:21.049Z,20.5
2022-07-30T03:56:57.111Z,20.5
2022-07-30T04:02:35.292Z,20.4
2022-07-30T04:08:10.098Z,20.4
2022-07-30T04:13:44.966Z,20.4
2022-07-30T04:19:41.610Z,20.4
2022-07-30T04:25:18.440Z,20.4
2022-07-30T04:31:00.331Z,20.4
2022-07-30T04:36:35.713Z,20.4
2022-07-30T04:42:10.843Z,20.4
2022-07-30T04:47:46.120Z,20.4
2022-07-30T04:53:22.079Z,20.3
2022-07-30T04:58:56.826Z,20.3
2022-07-30T05:04:33.388Z,20.3
2022-07-30T05:10:08.206Z,20.3
2022-07-30T05:15:43.065Z,20.3
2022-07-30T05:21:19.482Z,20.3
2022-07-30T05:26:54.496Z,20.3
2022-07-30T05:32:29.380Z,20.3
2022-07-30T05:38:07.180Z,20.3
2022-07-30T05:43:41.954Z,20.3
2022-07-30T05:49:30.764Z,20.4
2022-07-30T05:55:06.891Z,20.4
2022-07-30T06:00:41.828Z,20.4
2022-07-30T06:06:21.066Z,20.4
2022-07-30T06:11:58.830Z,20.4
2022-07-30T06:17:57.268Z,20.4
2022-07-30T06:23:38.884Z,20.4
2022-07-30T06:29:13.892Z,20.4
2022-07-30T06:34:55.230Z,20.5
2022-07-30T06:40:40.201Z,20.6
2022-07-30T06:46:15.301Z,20.8
2022-07-30T06:51:50.923Z,20.8
2022-07-30T06:57:25.774Z,21
2022-07-30T07:03:00.660Z,21
2022-07-30T07:08:35.512Z,21
2022-07-30T07:14:13.306Z,21.1
2022-07-30T07:20:00.625Z,21.3
2022-07-30T07:25:37.863Z,21.4
2022-07-30T07:32:04.490Z,21.6
2022-07-30T07:37:45.125Z,22.2
2022-07-30T07:43:21.091Z,22.5
2022-07-30T07:48:55.857Z,22.8
2022-07-30T07:54:31.131Z,23.3
2022-07-30T08:00:07.094Z,23.3
2022-07-30T08:05:54.168Z,23.6
2022-07-30T08:11:50.799Z,23.7
2022-07-30T08:17:47.209Z,23.5
2022-07-30T08:23:19.825Z,23.6
2022-07-30T08:28:57.622Z,23.7
2022-07-30T08:34:33.566Z,23.6
2022-07-30T08:40:10.143Z,23.4
2022-07-30T08:45:44.983Z,24.1
2022-07-30T08:51:20.890Z,24.4
2022-07-30T08:56:55.873Z,25
2022-07-30T09:02:30.705Z,25.5
2022-07-30T09:08:08.770Z,25.5
2022-07-30T09:13:44.168Z,25.5
2022-07-30T09:19:41.876Z,25.5
2022-07-30T09:25:14.666Z,25.4
2022-07-30T09:30:49.566Z,25.4
2022-07-30T09:36:24.334Z,25.7
2022-07-30T09:41:59.577Z,26.1
2022-07-30T09:47:40.146Z,26.6
2022-07-30T09:53:15.925Z,26.8
2022-07-30T09:58:52.963Z,27.2
2022-07-30T10:04:31.811Z,26.8
2022-07-30T10:10:06.721Z,26.9
2022-07-30T10:15:45.704Z,27.5
2022-07-30T10:21:22.473Z,27.1
2022-07-30T10:27:01.717Z,27.4
2022-07-30T10:32:46.972Z,27.3
2022-07-30T10:38:28.939Z,27.6
2022-07-30T10:44:03.785Z,28.3
2022-07-30T10:49:40.821Z,28.4
2022-07-30T10:55:32.822Z,27.9
2022-07-30T11:01:18.232Z,27
2022-07-30T11:06:57.490Z,26.7
2022-07-30T11:12:34.599Z,28
2022-07-30T11:18:11.236Z,28.2
2022-07-30T11:23:53.334Z,28.1
2022-07-30T11:29:32.920Z,29.1
2022-07-30T11:35:08.817Z,29.2
2022-07-30T11:40:45.170Z,27.9
2022-07-30T11:46:25.278Z,28
2022-07-30T11:52:05.879Z,29
2022-07-30T11:57:40.685Z,30.2
2022-07-30T12:03:15.803Z,31.3
2022-07-30T12:08:52.928Z,31.4
2022-07-30T12:14:34.820Z,30.9
2022-07-30T12:20:09.979Z,30.9
2022-07-30T12:25:47.583Z,31.4
2022-07-30T12:31:27.700Z,31.4
2022-07-30T12:37:02.811Z,28.4
2022-07-30T12:42:39.946Z,27.6
2022-07-30T12:48:16.831Z,27.3
2022-07-30T12:53:52.312Z,27.1
2022-07-30T12:59:27.420Z,26.9
2022-07-30T13:05:10.517Z,26.9
2022-07-30T13:10:47.015Z,27
2022-07-30T13:16:43.834Z,26.9
2022-07-30T13:22:16.514Z,26.8
2022-07-30T13:27:51.264Z,26.7
2022-07-30T13:33:27.015Z,26.6
2022-07-30T13:39:02.325Z,26.6
2022-07-30T13:44:37.108Z,26.5
2022-07-30T13:50:12.783Z,26.5
2022-07-30T13:55:47.604Z,26.7
2022-07-30T14:01:22.187Z,26.6
2022-07-30T14:06:58.384Z,26.6
2022-07-30T14:12:35.511Z,26.6
2022-07-30T14:18:32.341Z,26.6
2022-07-30T14:24:05.220Z,26.5
2022-07-30T14:29:43.526Z,26.5
2022-07-30T14:35:18.668Z,27
2022-07-30T14:40:53.773Z,27.2
2022-07-30T14:46:37.847Z,26.9
2022-07-30T14:52:29.102Z,26.6
2022-07-30T14:58:12.115Z,26.5
2022-07-30T15:03:46.847Z,26.4
2022-07-30T15:09:22.063Z,26.3
2022-07-30T15:14:56.974Z,26.2
2022-07-30T15:20:37.312Z,26.2
2022-07-30T15:26:12.099Z,26.2
2022-07-30T15:31:47.065Z,26.1
2022-07-30T15:37:22.489Z,26.1
2022-07-30T15:42:57.195Z,26.1
2022-07-30T15:48:31.954Z,26.1
2022-07-30T15:54:06.797Z,26.1
2022-07-30T15:59:43.574Z,26
2022-07-30T16:05:18.599Z,26
2022-07-30T16:10:53.461Z,26
2022-07-30T16:16:49.966Z,26
2022-07-30T16:22:23.752Z,26
2022-07-30T16:28:00.074Z,26
2022-07-30T16:33:34.843Z,26.1
2022-07-30T16:39:14.533Z,26.1
2022-07-30T16:44:50.390Z,26.2
2022-07-30T16:50:25.300Z,26.3
2022-07-30T16:56:00.120Z,26.5
2022-07-30T17:01:35.107Z,26.4
2022-07-30T17:07:11.054Z,26.3
2022-07-30T17:12:46.852Z,26.2
2022-07-30T17:18:47.809Z,26.1
2022-07-30T17:24:21.105Z,26
2022-07-30T17:29:57.472Z,25.9
2022-07-30T17:35:32.349Z,25.9
2022-07-30T17:41:13.152Z,25.8
2022-07-30T17:46:48.794Z,25.7
2022-07-30T17:52:26.305Z,25.7
2022-07-30T17:58:02.435Z,26.1
2022-07-30T18:03:37.348Z,26.4
2022-07-30T18:09:21.057Z,26.1
2022-07-30T18:14:55.844Z,25.9
2022-07-30T18:20:30.619Z,25.7
2022-07-30T18:26:05.508Z,25.5
2022-07-30T18:31:44.689Z,25.3
2022-07-30T18:37:20.547Z,25.2
2022-07-30T18:42:56.324Z,24.9
2022-07-30T18:48:31.036Z,24.8
2022-07-30T18:54:06.726Z,24.6
2022-07-30T18:59:41.569Z,24.4
2022-07-30T19:05:17.173Z,24.2
2022-07-30T19:10:58.835Z,24.1
2022-07-30T19:17:00.086Z,23.9
2022-07-30T19:22:34.967Z,23.8
2022-07-30T19:28:11.508Z,23.7
2022-07-30T19:33:48.513Z,23.6
2022-07-30T19:39:29.305Z,23.5
2022-07-30T19:45:11.652Z,23.4
2022-07-30T19:50:50.594Z,23.4
2022-07-30T19:56:26.357Z,23.3
2022-07-30T20:02:01.398Z,23.3
2022-07-30T20:07:44.643Z,23.2
2022-07-30T20:13:43.853Z,23.1
2022-07-30T20:19:47.681Z,23
2022-07-30T20:25:24.319Z,22.9
2022-07-30T20:31:02.145Z,22.9
2022-07-30T20:36:38.033Z,22.9
2022-07-30T20:42:18.803Z,22.7
2022-07-30T20:47:59.092Z,22.4
2022-07-30T20:53:37.113Z,22.2
2022-07-30T20:59:12.233Z,22
2022-07-30T21:04:47.378Z,21.9
2022-07-30T21:10:23.885Z,21.9
2022-07-30T21:16:03.153Z,22.3
2022-07-30T21:21:51.691Z,22.4
2022-07-30T21:27:29.799Z,22.4
2022-07-30T21:33:05.362Z,22.4
2022-07-30T21:38:41.734Z,22.4
2022-07-30T21:44:18.714Z,22.4
2022-07-30T21:49:59.697Z,22.4
2022-07-30T21:55:53.127Z,22.3
2022-07-30T22:01:28.143Z,22.2
2022-07-30T22:07:24.200Z,22.2
2022-07-30T22:13:02.070Z,22.1
2022-07-30T22:19:02.444Z,22.1
2022-07-30T22:24:37.422Z,22
2022-07-30T22:30:13.907Z,21.9
2022-07-30T22:35:50.331Z,21.8
2022-07-30T22:41:25.380Z,21.8
2022-07-30T22:47:09.414Z,21.7
2022-07-30T22:54:10.318Z,21.7
2022-07-30T22:59:55.938Z,21.6
2022-07-30T23:05:54.941Z,21.6
2022-07-30T23:11:37.317Z,21.6
2022-07-30T23:17:34.950Z,21.6
2022-07-30T23:23:07.616Z,21.6
2022-07-30T23:28:44.308Z,21.6
2022-07-30T23:34:20.470Z,21.5
2022-07-30T23:39:55.314Z,21.5
2022-07-30T23:45:30.134Z,21.5
2022-07-30T23:51:05.677Z,21.4
2022-07-30T23:56:41.539Z,21.3
